EZS81FQ LSGG-LEMH
Flight info
| Callsign | EZS81FQ |
|---|---|
| Flight time | 1h 11m |
| Altitude | 37000 |
| Route | BALSI DCT RETNO DCT TUPOX DCT MTG DCT DIVKO DCT VATIR DCT PIVUS DCT BODEQ DCT VERSO L16 SARGO |
| Aircraft | A320/M-SDE2E3FGHIJ1RWXYZ/LB1 |
Departure
| Time | 2026-05-04 13:32 |
|---|---|
| Airport | Geneva International Airport (LSGG) |
Arrival
| Time | 2026-05-04 14:44 |
|---|---|
| Airport | Menorca Airport (LEMH) |
| Time | Latitude | Longitude | Altitude | Speed | Heading |
|---|---|---|---|---|---|
| 2026-05-04 12:43 | 46.23126 | 6.10520 | 1401 ft | 0 kts | 90° |
| 2026-05-04 13:21 | 46.23126 | 6.10522 | 1393 ft | 1 kts | 90° |
| 2026-05-04 13:21 | 46.23126 | 6.10551 | 1400 ft | 4 kts | 90° |
| 2026-05-04 13:21 | 46.23129 | 6.10594 | 1393 ft | 4 kts | 71° |
| 2026-05-04 13:21 | 46.23158 | 6.10647 | 1396 ft | 15 kts | 47° |
| 2026-05-04 13:22 | 46.23243 | 6.10766 | 1395 ft | 18 kts | 35° |
| 2026-05-04 13:22 | 46.23355 | 6.10790 | 1401 ft | 14 kts | 332° |
| 2026-05-04 13:22 | 46.23424 | 6.10702 | 1395 ft | 12 kts | 333° |
| 2026-05-04 13:22 | 46.23490 | 6.10764 | 1388 ft | 12 kts | 46° |
| 2026-05-04 13:23 | 46.23550 | 6.10853 | 1389 ft | 12 kts | 45° |
| 2026-05-04 13:23 | 46.23611 | 6.10942 | 1389 ft | 12 kts | 45° |
| 2026-05-04 13:23 | 46.23670 | 6.11028 | 1387 ft | 13 kts | 45° |
| 2026-05-04 13:23 | 46.23736 | 6.11124 | 1383 ft | 15 kts | 45° |
| 2026-05-04 13:24 | 46.23819 | 6.11248 | 1376 ft | 18 kts | 46° |
| 2026-05-04 13:24 | 46.23904 | 6.11373 | 1376 ft | 15 kts | 45° |
| 2026-05-04 13:24 | 46.23987 | 6.11495 | 1371 ft | 19 kts | 45° |
| 2026-05-04 13:25 | 46.24174 | 6.11769 | 1364 ft | 19 kts | 45° |
| 2026-05-04 13:25 | 46.24275 | 6.11920 | 1362 ft | 23 kts | 45° |
| 2026-05-04 13:25 | 46.24358 | 6.12040 | 1366 ft | 10 kts | 44° |
| 2026-05-04 13:25 | 46.24404 | 6.12105 | 1369 ft | 8 kts | 45° |
| 2026-05-04 13:26 | 46.24436 | 6.12153 | 1370 ft | 5 kts | 45° |
| 2026-05-04 13:26 | 46.24470 | 6.12201 | 1372 ft | 10 kts | 45° |
| 2026-05-04 13:26 | 46.24526 | 6.12283 | 1372 ft | 13 kts | 45° |
| 2026-05-04 13:26 | 46.24600 | 6.12395 | 1370 ft | 18 kts | 46° |
| 2026-05-04 13:27 | 46.24699 | 6.12541 | 1363 ft | 24 kts | 45° |
| 2026-05-04 13:27 | 46.24807 | 6.12671 | 1362 ft | 17 kts | 17° |
| 2026-05-04 13:27 | 46.24897 | 6.12709 | 1365 ft | 6 kts | 16° |
| 2026-05-04 13:27 | 46.24911 | 6.12716 | 1366 ft | 0 kts | 18° |
| 2026-05-04 13:28 | 46.24917 | 6.12719 | 1366 ft | 5 kts | 19° |
| 2026-05-04 13:28 | 46.24929 | 6.12725 | 1367 ft | 0 kts | 20° |
| 2026-05-04 13:30 | 46.24945 | 6.12732 | 1367 ft | 11 kts | 12° |
| 2026-05-04 13:31 | 46.25014 | 6.12676 | 1371 ft | 11 kts | 252° |
| 2026-05-04 13:31 | 46.24992 | 6.12637 | 1372 ft | 0 kts | 227° |
| 2026-05-04 13:31 | 46.24959 | 6.12589 | 1372 ft | 32 kts | 225° |
| 2026-05-04 13:32 | 46.24629 | 6.12103 | 1372 ft | 99 kts | 225° |
| 2026-05-04 13:32 | 46.24015 | 6.11202 | 1378 ft | 151 kts | 226° |
| 2026-05-04 13:32 | 46.23195 | 6.10004 | 1608 ft | 175 kts | 226° |
| 2026-05-04 13:32 | 46.22330 | 6.08751 | 2255 ft | 176 kts | 226° |
| 2026-05-04 13:33 | 46.21450 | 6.07470 | 2813 ft | 186 kts | 226° |
| 2026-05-04 13:33 | 46.20506 | 6.06079 | 3235 ft | 201 kts | 225° |
| 2026-05-04 13:33 | 46.19474 | 6.04546 | 3523 ft | 226 kts | 225° |
| 2026-05-04 13:33 | 46.18328 | 6.02859 | 3890 ft | 250 kts | 225° |
| 2026-05-04 13:34 | 46.17056 | 6.01016 | 4471 ft | 267 kts | 224° |
| 2026-05-04 13:34 | 46.15733 | 5.99128 | 5442 ft | 266 kts | 223° |
| 2026-05-04 13:34 | 46.14440 | 5.97253 | 6512 ft | 263 kts | 224° |
| 2026-05-04 13:34 | 46.13118 | 5.95463 | 7495 ft | 259 kts | 214° |
| 2026-05-04 13:35 | 46.11413 | 5.94664 | 8306 ft | 265 kts | 181° |
| 2026-05-04 13:35 | 46.07694 | 5.95504 | 9957 ft | 274 kts | 171° |
| 2026-05-04 13:35 | 46.05821 | 5.96079 | 10518 ft | 288 kts | 171° |
| 2026-05-04 13:36 | 46.03786 | 5.96704 | 10778 ft | 310 kts | 171° |
| 2026-05-04 13:36 | 46.01640 | 5.97340 | 11382 ft | 319 kts | 171° |
| 2026-05-04 13:36 | 45.99450 | 5.97970 | 12139 ft | 322 kts | 171° |
| 2026-05-04 13:36 | 45.97239 | 5.98575 | 12933 ft | 324 kts | 174° |
| 2026-05-04 13:37 | 45.94986 | 5.98704 | 13691 ft | 326 kts | 185° |
| 2026-05-04 13:37 | 45.92704 | 5.98558 | 14350 ft | 330 kts | 185° |
| 2026-05-04 13:37 | 45.90406 | 5.98410 | 15018 ft | 332 kts | 185° |
| 2026-05-04 13:37 | 45.88875 | 5.98312 | 15460 ft | 334 kts | 185° |
| 2026-05-04 13:38 | 45.85789 | 5.98118 | 16325 ft | 337 kts | 185° |
| 2026-05-04 13:38 | 45.83435 | 5.97975 | 16978 ft | 340 kts | 185° |
| 2026-05-04 13:38 | 45.81064 | 5.97832 | 17620 ft | 343 kts | 185° |
| 2026-05-04 13:38 | 45.80185 | 5.97778 | 17857 ft | 343 kts | 184° |
| 2026-05-04 13:39 | 45.78071 | 5.97658 | 18421 ft | 346 kts | 184° |
| 2026-05-04 13:39 | 45.75658 | 5.97545 | 18974 ft | 349 kts | 184° |
| 2026-05-04 13:39 | 45.73219 | 5.97443 | 19513 ft | 352 kts | 184° |
| 2026-05-04 13:39 | 45.70763 | 5.97342 | 20046 ft | 355 kts | 184° |
| 2026-05-04 13:40 | 45.68286 | 5.97240 | 20584 ft | 358 kts | 184° |
| 2026-05-04 13:40 | 45.65823 | 5.97122 | 21118 ft | 361 kts | 184° |
| 2026-05-04 13:40 | 45.63304 | 5.96980 | 21646 ft | 364 kts | 184° |
| 2026-05-04 13:40 | 45.60765 | 5.96827 | 22153 ft | 367 kts | 184° |
| 2026-05-04 13:41 | 45.58195 | 5.96671 | 22638 ft | 372 kts | 184° |
| 2026-05-04 13:41 | 45.55601 | 5.96514 | 23169 ft | 375 kts | 184° |
| 2026-05-04 13:41 | 45.52976 | 5.96362 | 23685 ft | 379 kts | 184° |
| 2026-05-04 13:42 | 45.47709 | 5.95985 | 24510 ft | 383 kts | 189° |
| 2026-05-04 13:42 | 45.45090 | 5.95266 | 24923 ft | 385 kts | 193° |
| 2026-05-04 13:42 | 45.42467 | 5.94448 | 25350 ft | 387 kts | 193° |
| 2026-05-04 13:42 | 45.39838 | 5.93623 | 25764 ft | 389 kts | 194° |
| 2026-05-04 13:43 | 45.37183 | 5.92790 | 26177 ft | 391 kts | 194° |
| 2026-05-04 13:43 | 45.34525 | 5.91959 | 26554 ft | 393 kts | 194° |
| 2026-05-04 13:43 | 45.31845 | 5.91121 | 26954 ft | 395 kts | 194° |
| 2026-05-04 13:43 | 45.29159 | 5.90282 | 27328 ft | 397 kts | 194° |
| 2026-05-04 13:44 | 45.26457 | 5.89438 | 27701 ft | 399 kts | 194° |
| 2026-05-04 13:44 | 45.23776 | 5.88604 | 28074 ft | 401 kts | 194° |
| 2026-05-04 13:44 | 45.21048 | 5.87758 | 28448 ft | 402 kts | 194° |
| 2026-05-04 13:44 | 45.18306 | 5.86909 | 28810 ft | 404 kts | 194° |
| 2026-05-04 13:45 | 45.15548 | 5.86056 | 29198 ft | 406 kts | 194° |
| 2026-05-04 13:45 | 45.12780 | 5.85202 | 29573 ft | 409 kts | 194° |
| 2026-05-04 13:45 | 45.09997 | 5.84340 | 29936 ft | 410 kts | 194° |
| 2026-05-04 13:45 | 45.07202 | 5.83475 | 30249 ft | 412 kts | 194° |
| 2026-05-04 13:46 | 45.04395 | 5.82605 | 30531 ft | 414 kts | 194° |
| 2026-05-04 13:46 | 45.01617 | 5.81745 | 30791 ft | 415 kts | 195° |
| 2026-05-04 13:46 | 44.98796 | 5.80873 | 31099 ft | 415 kts | 195° |
| 2026-05-04 13:46 | 44.95973 | 5.80004 | 31448 ft | 415 kts | 195° |
| 2026-05-04 13:47 | 44.93162 | 5.79141 | 31824 ft | 413 kts | 195° |
| 2026-05-04 13:47 | 44.90355 | 5.78279 | 32193 ft | 412 kts | 195° |
| 2026-05-04 13:47 | 44.87558 | 5.77421 | 32555 ft | 411 kts | 195° |
| 2026-05-04 13:47 | 44.84767 | 5.76570 | 32905 ft | 410 kts | 196° |
| 2026-05-04 13:48 | 44.81989 | 5.75723 | 33302 ft | 407 kts | 196° |
| 2026-05-04 13:48 | 44.79263 | 5.74889 | 33703 ft | 405 kts | 197° |
| 2026-05-04 13:48 | 44.76515 | 5.74045 | 34091 ft | 404 kts | 197° |
| 2026-05-04 13:48 | 44.73772 | 5.73205 | 34415 ft | 403 kts | 197° |
| 2026-05-04 13:49 | 44.71036 | 5.72368 | 34706 ft | 402 kts | 197° |
| 2026-05-04 13:49 | 44.68299 | 5.71533 | 34969 ft | 402 kts | 197° |
| 2026-05-04 13:49 | 44.65562 | 5.70699 | 35267 ft | 402 kts | 197° |
| 2026-05-04 13:49 | 44.62830 | 5.69869 | 35536 ft | 402 kts | 197° |
| 2026-05-04 13:50 | 44.60096 | 5.69036 | 35782 ft | 402 kts | 197° |
| 2026-05-04 13:50 | 44.57400 | 5.68216 | 36022 ft | 402 kts | 197° |
| 2026-05-04 13:50 | 44.54668 | 5.67389 | 36254 ft | 401 kts | 197° |
| 2026-05-04 13:50 | 44.51943 | 5.66567 | 36499 ft | 401 kts | 197° |
| 2026-05-04 13:51 | 44.49220 | 5.65744 | 36686 ft | 400 kts | 197° |
| 2026-05-04 13:51 | 44.46496 | 5.64921 | 36900 ft | 400 kts | 197° |
| 2026-05-04 13:51 | 44.43779 | 5.64102 | 37026 ft | 399 kts | 197° |
| 2026-05-04 13:51 | 44.41070 | 5.63283 | 37031 ft | 398 kts | 197° |
| 2026-05-04 13:52 | 44.33299 | 5.59792 | 37031 ft | 391 kts | 206° |
| 2026-05-04 13:53 | 44.28236 | 5.57008 | 37015 ft | 391 kts | 206° |
| 2026-05-04 13:53 | 44.23182 | 5.54236 | 37035 ft | 390 kts | 206° |
| 2026-05-04 13:54 | 44.15652 | 5.50126 | 37041 ft | 389 kts | 206° |
| 2026-05-04 13:55 | 44.08079 | 5.46000 | 37020 ft | 389 kts | 206° |
| 2026-05-04 13:55 | 44.00519 | 5.41896 | 37032 ft | 389 kts | 206° |
| 2026-05-04 13:56 | 43.95480 | 5.39166 | 37039 ft | 389 kts | 206° |
| 2026-05-04 13:57 | 43.87956 | 5.35100 | 37034 ft | 388 kts | 206° |
| 2026-05-04 13:58 | 43.77924 | 5.29686 | 37042 ft | 386 kts | 206° |
| 2026-05-04 13:58 | 43.70458 | 5.25687 | 37022 ft | 385 kts | 206° |
| 2026-05-04 13:59 | 43.65475 | 5.23012 | 37040 ft | 383 kts | 206° |
| 2026-05-04 14:00 | 43.58021 | 5.19023 | 37037 ft | 383 kts | 206° |
| 2026-05-04 14:00 | 43.50606 | 5.15062 | 37027 ft | 382 kts | 206° |
| 2026-05-04 14:01 | 43.45641 | 5.12417 | 37038 ft | 383 kts | 206° |
| 2026-05-04 14:02 | 43.38270 | 5.08277 | 37034 ft | 378 kts | 214° |
| 2026-05-04 14:02 | 43.34662 | 5.04950 | 37026 ft | 375 kts | 218° |
| 2026-05-04 14:03 | 43.29661 | 5.00228 | 37003 ft | 375 kts | 218° |
| 2026-05-04 14:03 | 43.25367 | 4.96183 | 37006 ft | 374 kts | 218° |
| 2026-05-04 14:04 | 43.19652 | 4.90819 | 37004 ft | 374 kts | 217° |
| 2026-05-04 14:04 | 43.15354 | 4.86803 | 36994 ft | 374 kts | 217° |
| 2026-05-04 14:05 | 43.08221 | 4.80131 | 36963 ft | 373 kts | 217° |
| 2026-05-04 14:06 | 43.04597 | 4.76926 | 36964 ft | 375 kts | 213° |
| 2026-05-04 14:06 | 43.00034 | 4.73470 | 36970 ft | 375 kts | 213° |
| 2026-05-04 14:07 | 42.95477 | 4.70008 | 36966 ft | 375 kts | 213° |
| 2026-05-04 14:07 | 42.90923 | 4.66555 | 36944 ft | 374 kts | 213° |
| 2026-05-04 14:08 | 42.86368 | 4.63105 | 36955 ft | 374 kts | 213° |
| 2026-05-04 14:08 | 42.81842 | 4.59694 | 36960 ft | 374 kts | 213° |
| 2026-05-04 14:09 | 42.75006 | 4.54557 | 36963 ft | 375 kts | 212° |
| 2026-05-04 14:10 | 42.68161 | 4.49406 | 36959 ft | 375 kts | 212° |
| 2026-05-04 14:10 | 42.63622 | 4.45997 | 36949 ft | 375 kts | 212° |
| 2026-05-04 14:11 | 42.59047 | 4.42576 | 36944 ft | 376 kts | 212° |
| 2026-05-04 14:11 | 42.52179 | 4.37450 | 36928 ft | 376 kts | 212° |
| 2026-05-04 14:12 | 42.47601 | 4.34036 | 36941 ft | 375 kts | 212° |
| 2026-05-04 14:13 | 42.40777 | 4.28968 | 36949 ft | 374 kts | 212° |
| 2026-05-04 14:13 | 42.36212 | 4.25584 | 36943 ft | 374 kts | 212° |
| 2026-05-04 14:14 | 42.31648 | 4.22202 | 36921 ft | 374 kts | 212° |
| 2026-05-04 14:14 | 42.24818 | 4.17173 | 36940 ft | 375 kts | 212° |
| 2026-05-04 14:15 | 42.15665 | 4.10426 | 36930 ft | 375 kts | 212° |
| 2026-05-04 14:16 | 42.08789 | 4.05361 | 36919 ft | 375 kts | 212° |
| 2026-05-04 14:17 | 42.01945 | 4.00325 | 36934 ft | 376 kts | 212° |
| 2026-05-04 14:18 | 41.95055 | 3.95306 | 36929 ft | 375 kts | 212° |
| 2026-05-04 14:18 | 41.90135 | 3.92838 | 36915 ft | 385 kts | 196° |
| 2026-05-04 14:19 | 41.84850 | 3.91633 | 36922 ft | 386 kts | 196° |
| 2026-05-04 14:19 | 41.82204 | 3.91021 | 36663 ft | 385 kts | 196° |
| 2026-05-04 14:19 | 41.79602 | 3.90418 | 36405 ft | 384 kts | 196° |
| 2026-05-04 14:19 | 41.76967 | 3.89809 | 36149 ft | 384 kts | 196° |
| 2026-05-04 14:20 | 41.74340 | 3.89202 | 35894 ft | 383 kts | 196° |
| 2026-05-04 14:20 | 41.71716 | 3.88597 | 35642 ft | 381 kts | 196° |
| 2026-05-04 14:20 | 41.69111 | 3.87998 | 35386 ft | 379 kts | 196° |
| 2026-05-04 14:21 | 41.63955 | 3.86820 | 34896 ft | 373 kts | 196° |
| 2026-05-04 14:21 | 41.61403 | 3.86236 | 34657 ft | 371 kts | 196° |
| 2026-05-04 14:21 | 41.58901 | 3.85663 | 34420 ft | 368 kts | 196° |
| 2026-05-04 14:21 | 41.56385 | 3.85084 | 34182 ft | 366 kts | 196° |
| 2026-05-04 14:22 | 41.53885 | 3.84508 | 33875 ft | 362 kts | 196° |
| 2026-05-04 14:22 | 41.51407 | 3.83939 | 33364 ft | 360 kts | 196° |
| 2026-05-04 14:22 | 41.48953 | 3.83375 | 32857 ft | 357 kts | 196° |
| 2026-05-04 14:22 | 41.46518 | 3.82816 | 32400 ft | 354 kts | 196° |
| 2026-05-04 14:23 | 41.41688 | 3.81702 | 31453 ft | 351 kts | 195° |
| 2026-05-04 14:23 | 41.39289 | 3.81153 | 30997 ft | 349 kts | 195° |
| 2026-05-04 14:23 | 41.36928 | 3.80615 | 30545 ft | 349 kts | 195° |
| 2026-05-04 14:24 | 41.34539 | 3.80074 | 30096 ft | 348 kts | 194° |
| 2026-05-04 14:24 | 41.32153 | 3.79532 | 29589 ft | 347 kts | 194° |
| 2026-05-04 14:24 | 41.29779 | 3.78995 | 29157 ft | 344 kts | 194° |
| 2026-05-04 14:24 | 41.27425 | 3.78461 | 28715 ft | 342 kts | 194° |
| 2026-05-04 14:25 | 41.25093 | 3.77931 | 28306 ft | 339 kts | 195° |
| 2026-05-04 14:25 | 41.20475 | 3.76878 | 27468 ft | 335 kts | 195° |
| 2026-05-04 14:25 | 41.18217 | 3.76365 | 27056 ft | 333 kts | 195° |
| 2026-05-04 14:26 | 41.15912 | 3.76020 | 26632 ft | 336 kts | 186° |
| 2026-05-04 14:26 | 41.13570 | 3.76330 | 26190 ft | 344 kts | 174° |
| 2026-05-04 14:26 | 41.11248 | 3.77154 | 25745 ft | 345 kts | 172° |
| 2026-05-04 14:26 | 41.08933 | 3.78003 | 25270 ft | 346 kts | 172° |
| 2026-05-04 14:27 | 41.06613 | 3.78851 | 24798 ft | 346 kts | 172° |
| 2026-05-04 14:27 | 41.04286 | 3.79698 | 24329 ft | 347 kts | 172° |
| 2026-05-04 14:27 | 41.01956 | 3.80541 | 23833 ft | 348 kts | 172° |
| 2026-05-04 14:27 | 40.99613 | 3.81386 | 23335 ft | 349 kts | 172° |
| 2026-05-04 14:28 | 40.97273 | 3.82230 | 22831 ft | 348 kts | 171° |
| 2026-05-04 14:28 | 40.94943 | 3.83072 | 22374 ft | 347 kts | 171° |
| 2026-05-04 14:28 | 40.92652 | 3.83901 | 21932 ft | 345 kts | 171° |
| 2026-05-04 14:28 | 40.90339 | 3.84739 | 21479 ft | 344 kts | 171° |
| 2026-05-04 14:29 | 40.85736 | 3.86403 | 20586 ft | 342 kts | 170° |
| 2026-05-04 14:29 | 40.81160 | 3.88046 | 19704 ft | 340 kts | 170° |
| 2026-05-04 14:30 | 40.78883 | 3.88861 | 19262 ft | 339 kts | 170° |
| 2026-05-04 14:30 | 40.76607 | 3.89677 | 18829 ft | 339 kts | 170° |
| 2026-05-04 14:30 | 40.72083 | 3.91297 | 17934 ft | 339 kts | 169° |
| 2026-05-04 14:31 | 40.69813 | 3.92114 | 17494 ft | 338 kts | 169° |
| 2026-05-04 14:31 | 40.65298 | 3.93732 | 16645 ft | 335 kts | 169° |
| 2026-05-04 14:32 | 40.60824 | 3.95326 | 15811 ft | 332 kts | 169° |
| 2026-05-04 14:32 | 40.58603 | 3.96121 | 15415 ft | 330 kts | 168° |
| 2026-05-04 14:32 | 40.56389 | 3.96911 | 15010 ft | 329 kts | 168° |
| 2026-05-04 14:32 | 40.54187 | 3.97697 | 14664 ft | 326 kts | 168° |
| 2026-05-04 14:33 | 40.52028 | 3.98466 | 14266 ft | 325 kts | 168° |
| 2026-05-04 14:33 | 40.49854 | 3.99240 | 13868 ft | 324 kts | 168° |
| 2026-05-04 14:33 | 40.47696 | 4.00009 | 13484 ft | 321 kts | 168° |
| 2026-05-04 14:33 | 40.45548 | 4.00776 | 13133 ft | 317 kts | 168° |
| 2026-05-04 14:34 | 40.43418 | 4.01536 | 12690 ft | 316 kts | 168° |
| 2026-05-04 14:34 | 40.41306 | 4.02287 | 12252 ft | 315 kts | 168° |
| 2026-05-04 14:34 | 40.39208 | 4.03033 | 11850 ft | 312 kts | 168° |
| 2026-05-04 14:34 | 40.37115 | 4.03774 | 11465 ft | 310 kts | 168° |
| 2026-05-04 14:35 | 40.35034 | 4.04510 | 11057 ft | 308 kts | 168° |
| 2026-05-04 14:35 | 40.33000 | 4.05231 | 10638 ft | 306 kts | 168° |
| 2026-05-04 14:35 | 40.30965 | 4.05953 | 10407 ft | 298 kts | 168° |
| 2026-05-04 14:35 | 40.28999 | 4.06649 | 10250 ft | 288 kts | 168° |
| 2026-05-04 14:36 | 40.27085 | 4.07325 | 9946 ft | 284 kts | 168° |
| 2026-05-04 14:36 | 40.25185 | 4.07996 | 9552 ft | 282 kts | 168° |
| 2026-05-04 14:36 | 40.23310 | 4.08658 | 8985 ft | 277 kts | 168° |
| 2026-05-04 14:36 | 40.21452 | 4.09312 | 8258 ft | 275 kts | 168° |
| 2026-05-04 14:37 | 40.19633 | 4.09956 | 7785 ft | 265 kts | 168° |
| 2026-05-04 14:37 | 40.17890 | 4.10576 | 7388 ft | 254 kts | 169° |
| 2026-05-04 14:37 | 40.16200 | 4.11176 | 6916 ft | 256 kts | 169° |
| 2026-05-04 14:37 | 40.14464 | 4.11782 | 6394 ft | 264 kts | 169° |
| 2026-05-04 14:38 | 40.12684 | 4.12405 | 5841 ft | 265 kts | 169° |
| 2026-05-04 14:38 | 40.10910 | 4.13030 | 5288 ft | 262 kts | 168° |
| 2026-05-04 14:38 | 40.09211 | 4.13819 | 4743 ft | 260 kts | 151° |
| 2026-05-04 14:38 | 40.08019 | 4.15572 | 4185 ft | 264 kts | 115° |
| 2026-05-04 14:39 | 40.07777 | 4.17931 | 3643 ft | 265 kts | 89° |
| 2026-05-04 14:39 | 40.07727 | 4.20305 | 3092 ft | 259 kts | 105° |
| 2026-05-04 14:39 | 40.07074 | 4.22431 | 2531 ft | 249 kts | 128° |
| 2026-05-04 14:40 | 40.04572 | 4.24937 | 1998 ft | 213 kts | 167° |
| 2026-05-04 14:40 | 40.03155 | 4.25250 | 2000 ft | 204 kts | 183° |
| 2026-05-04 14:40 | 40.01751 | 4.25059 | 2003 ft | 204 kts | 191° |
| 2026-05-04 14:40 | 40.00339 | 4.24767 | 2006 ft | 206 kts | 191° |
| 2026-05-04 14:41 | 39.98931 | 4.24477 | 2002 ft | 202 kts | 191° |
| 2026-05-04 14:41 | 39.97597 | 4.24204 | 1997 ft | 189 kts | 192° |
| 2026-05-04 14:41 | 39.95249 | 4.23722 | 1875 ft | 151 kts | 192° |
| 2026-05-04 14:42 | 39.93339 | 4.23325 | 1496 ft | 134 kts | 193° |
| 2026-05-04 14:42 | 39.92422 | 4.23139 | 1309 ft | 133 kts | 193° |
| 2026-05-04 14:42 | 39.91508 | 4.22950 | 1151 ft | 135 kts | 193° |
| 2026-05-04 14:43 | 39.90582 | 4.22759 | 985 ft | 133 kts | 190° |
| 2026-05-04 14:43 | 39.89658 | 4.22568 | 801 ft | 135 kts | 193° |
| 2026-05-04 14:43 | 39.88734 | 4.22378 | 630 ft | 134 kts | 193° |
| 2026-05-04 14:43 | 39.87822 | 4.22192 | 461 ft | 131 kts | 194° |
| 2026-05-04 14:44 | 39.86922 | 4.22005 | 318 ft | 130 kts | 194° |
| 2026-05-04 14:44 | 39.86185 | 4.21847 | 302 ft | 72 kts | 189° |
| 2026-05-04 14:44 | 39.85802 | 4.21776 | 300 ft | 40 kts | 190° |
| 2026-05-04 14:44 | 39.85601 | 4.21766 | 291 ft | 24 kts | 172° |
| 2026-05-04 14:45 | 39.85435 | 4.21833 | 283 ft | 26 kts | 160° |
| 2026-05-04 14:45 | 39.85426 | 4.21927 | 283 ft | 13 kts | 25° |
| 2026-05-04 14:45 | 39.85504 | 4.21948 | 285 ft | 10 kts | 7° |
| 2026-05-04 14:45 | 39.85563 | 4.21958 | 286 ft | 7 kts | 8° |
| 2026-05-04 14:46 | 39.85600 | 4.21966 | 288 ft | 4 kts | 8° |
| 2026-05-04 14:46 | 39.85630 | 4.21972 | 288 ft | 5 kts | 8° |
| 2026-05-04 14:46 | 39.85715 | 4.21991 | 291 ft | 18 kts | 11° |
| 2026-05-04 14:46 | 39.85843 | 4.22020 | 296 ft | 19 kts | 8° |
| 2026-05-04 14:47 | 39.85983 | 4.22046 | 296 ft | 22 kts | 9° |
| 2026-05-04 14:47 | 39.86091 | 4.22069 | 296 ft | 10 kts | 9° |
| 2026-05-04 14:47 | 39.86127 | 4.22077 | 294 ft | 1 kts | 9° |
| 2026-05-04 14:47 | 39.86163 | 4.22085 | 294 ft | 14 kts | 11° |
| 2026-05-04 14:48 | 39.86188 | 4.22199 | 290 ft | 17 kts | 103° |
| 2026-05-04 14:48 | 39.86271 | 4.22276 | 288 ft | 18 kts | 8° |
| 2026-05-04 14:48 | 39.86396 | 4.22303 | 288 ft | 18 kts | 9° |
| 2026-05-04 14:48 | 39.86473 | 4.22328 | 288 ft | 7 kts | 46° |
| 2026-05-04 14:49 | 39.86469 | 4.22393 | 286 ft | 5 kts | 99° |
| 2026-05-04 14:49 | 39.86468 | 4.22399 | 286 ft | 0 kts | 99° |